Itaicaba, Brazil
Current Conditions -  °F | °C
As of 9:00 AM on Sunday 23 Nov 2014 (Local Time) from SBFZ Reporting Station
Broken Clouds Broken Clouds  
Wind Chill: 84°   Ceiling: 2500
Heat Index: 87°   Visibility: 6mi
Dew Point: 68°   Wind: 18mph
Humidity: 58%   Direction: 100°E
Pressure: 29.91"   Gusts: NA
Location:  4.68°S, 37.82°W
Report Text: SBFZ 231200Z 10016KT 9999 BKN025 29/20 Q1013
Loading
Personal Weather Stations






























Interactive Weather Map New forecast layout! Learn more

10-Day Weather Forecast

Advertisements
Track Severe Weather on mobile